sensor_id;sensor_type;location;lat;lon;timestamp;pressure;altitude;pressure_sealevel;temperature;humidity
64336;BME280;50672;53.362;-6.240;2023-02-18T00:01:31;101663.66;;;11.60;78.37
64336;BME280;50672;53.362;-6.240;2023-02-18T00:03:59;101669.78;;;11.62;78.13
64336;BME280;50672;53.362;-6.240;2023-02-18T00:06:28;101682.41;;;11.63;78.25
64336;BME280;50672;53.362;-6.240;2023-02-18T00:08:56;101680.53;;;11.63;78.52
64336;BME280;50672;53.362;-6.240;2023-02-18T00:11:25;101677.13;;;11.61;78.60
64336;BME280;50672;53.362;-6.240;2023-02-18T00:13:57;101668.38;;;11.58;78.38
64336;BME280;50672;53.362;-6.240;2023-02-18T00:16:25;101673.16;;;11.56;78.67
64336;BME280;50672;53.362;-6.240;2023-02-18T00:19:00;101658.66;;;11.55;78.67
64336;BME280;50672;53.362;-6.240;2023-02-18T00:21:28;101661.38;;;11.55;78.55
64336;BME280;50672;53.362;-6.240;2023-02-18T00:23:56;101662.75;;;11.51;78.78
64336;BME280;50672;53.362;-6.240;2023-02-18T00:26:23;101652.47;;;11.45;79.27
64336;BME280;50672;53.362;-6.240;2023-02-18T00:28:50;101650.72;;;11.44;79.53
64336;BME280;50672;53.362;-6.240;2023-02-18T00:31:24;101657.06;;;11.44;79.50
64336;BME280;50672;53.362;-6.240;2023-02-18T00:33:51;101643.59;;;11.43;79.50
64336;BME280;50672;53.362;-6.240;2023-02-18T00:36:19;101639.84;;;11.44;79.90
64336;BME280;50672;53.362;-6.240;2023-02-18T00:38:49;101645.59;;;11.41;79.89
64336;BME280;50672;53.362;-6.240;2023-02-18T00:41:16;101649.34;;;11.40;80.22
64336;BME280;50672;53.362;-6.240;2023-02-18T00:43:43;101648.50;;;11.39;80.53
64336;BME280;50672;53.362;-6.240;2023-02-18T00:46:10;101644.94;;;11.39;80.41
64336;BME280;50672;53.362;-6.240;2023-02-18T00:48:38;101631.59;;;11.36;80.55
64336;BME280;50672;53.362;-6.240;2023-02-18T00:51:06;101640.97;;;11.33;80.85
64336;BME280;50672;53.362;-6.240;2023-02-18T00:53:34;101634.63;;;11.33;81.25
64336;BME280;50672;53.362;-6.240;2023-02-18T00:56:01;101634.63;;;11.33;81.07
64336;BME280;50672;53.362;-6.240;2023-02-18T00:58:28;101636.34;;;11.34;81.12
64336;BME280;50672;53.362;-6.240;2023-02-18T01:00:55;101633.78;;;11.32;81.26
64336;BME280;50672;53.362;-6.240;2023-02-18T01:03:22;101636.34;;;11.34;81.63
64336;BME280;50672;53.362;-6.240;2023-02-18T01:05:50;101634.31;;;11.36;81.78
64336;BME280;50672;53.362;-6.240;2023-02-18T01:08:19;101623.75;;;11.33;82.03
64336;BME280;50672;53.362;-6.240;2023-02-18T01:10:48;101625.63;;;11.32;81.99
64336;BME280;50672;53.362;-6.240;2023-02-18T01:13:15;101625.78;;;11.31;82.09
64336;BME280;50672;53.362;-6.240;2023-02-18T01:15:42;101620.66;;;11.27;82.61
64336;BME280;50672;53.362;-6.240;2023-02-18T01:18:10;101619.63;;;11.28;82.92
64336;BME280;50672;53.362;-6.240;2023-02-18T01:20:38;101626.25;;;11.26;82.96
64336;BME280;50672;53.362;-6.240;2023-02-18T01:23:06;101610.03;;;11.24;82.89
64336;BME280;50672;53.362;-6.240;2023-02-18T01:25:35;101609.69;;;11.19;83.12
64336;BME280;50672;53.362;-6.240;2023-02-18T01:28:02;101621.44;;;11.20;83.37
64336;BME280;50672;53.362;-6.240;2023-02-18T01:30:30;101625.88;;;11.21;83.85
64336;BME280;50672;53.362;-6.240;2023-02-18T01:32:57;101631.50;;;11.19;83.71
64336;BME280;50672;53.362;-6.240;2023-02-18T01:35:24;101621.28;;;11.21;84.08
64336;BME280;50672;53.362;-6.240;2023-02-18T01:37:51;101617.69;;;11.21;84.08
64336;BME280;50672;53.362;-6.240;2023-02-18T01:40:21;101608.50;;;11.22;84.05
64336;BME280;50672;53.362;-6.240;2023-02-18T01:42:49;101598.78;;;11.19;84.50
64336;BME280;50672;53.362;-6.240;2023-02-18T01:48:20;101605.19;;;11.10;84.82
64336;BME280;50672;53.362;-6.240;2023-02-18T01:51:02;101602.63;;;11.08;84.81
64336;BME280;50672;53.362;-6.240;2023-02-18T01:56:15;101597.16;;;11.08;85.50
64336;BME280;50672;53.362;-6.240;2023-02-18T01:58:44;101598.00;;;11.09;85.31
64336;BME280;50672;53.362;-6.240;2023-02-18T02:01:11;101599.72;;;11.10;85.71
64336;BME280;50672;53.362;-6.240;2023-02-18T02:03:38;101597.00;;;11.10;85.77
64336;BME280;50672;53.362;-6.240;2023-02-18T02:06:14;101597.84;;;11.10;86.00
64336;BME280;50672;53.362;-6.240;2023-02-18T02:08:42;101605.72;;;11.14;86.25
64336;BME280;50672;53.362;-6.240;2023-02-18T02:11:23;101611.88;;;11.16;86.46
64336;BME280;50672;53.362;-6.240;2023-02-18T02:16:44;101613.31;;;11.28;86.35
64336;BME280;50672;53.362;-6.240;2023-02-18T02:36:22;101631.50;;;11.19;87.48
64336;BME280;50672;53.362;-6.240;2023-02-18T02:39:19;101628.28;;;11.24;87.73
64336;BME280;50672;53.362;-6.240;2023-02-18T02:44:56;101635.19;;;11.36;87.63
64336;BME280;50672;53.362;-6.240;2023-02-18T02:47:40;101622.25;;;11.38;87.86
64336;BME280;50672;53.362;-6.240;2023-02-18T02:50:50;101624.13;;;11.38;88.14
64336;BME280;50672;53.362;-6.240;2023-02-18T02:53:26;101621.41;;;11.38;88.27
64336;BME280;50672;53.362;-6.240;2023-02-18T02:55:55;101636.19;;;11.35;88.25
64336;BME280;50672;53.362;-6.240;2023-02-18T02:58:22;101622.72;;;11.34;88.19
64336;BME280;50672;53.362;-6.240;2023-02-18T03:12:06;101638.75;;;11.37;88.23
64336;BME280;50672;53.362;-6.240;2023-02-18T03:14:45;101656.84;;;11.38;88.12
64336;BME280;50672;53.362;-6.240;2023-02-18T03:17:22;101654.66;;;11.41;88.28
64336;BME280;50672;53.362;-6.240;2023-02-18T03:20:07;101651.78;;;11.43;87.85
64336;BME280;50672;53.362;-6.240;2023-02-18T03:22:39;101653.94;;;11.39;88.03
64336;BME280;50672;53.362;-6.240;2023-02-18T03:25:07;101658.84;;;11.36;87.99
64336;BME280;50672;53.362;-6.240;2023-02-18T03:27:42;101669.75;;;11.36;88.14
64336;BME280;50672;53.362;-6.240;2023-02-18T03:30:22;101658.31;;;11.32;87.95
64336;BME280;50672;53.362;-6.240;2023-02-18T03:32:58;101647.25;;;11.34;87.70
64336;BME280;50672;53.362;-6.240;2023-02-18T03:35:26;101654.75;;;11.32;87.45
64336;BME280;50672;53.362;-6.240;2023-02-18T03:38:03;101651.47;;;11.28;87.08
64336;BME280;50672;53.362;-6.240;2023-02-18T03:40:31;101660.81;;;11.25;87.00
64336;BME280;50672;53.362;-6.240;2023-02-18T03:42:58;101643.22;;;11.20;86.82
64336;BME280;50672;53.362;-6.240;2023-02-18T03:45:26;101643.31;;;11.10;86.55
64336;BME280;50672;53.362;-6.240;2023-02-18T03:47:53;101655.53;;;11.06;85.85
64336;BME280;50672;53.362;-6.240;2023-02-18T03:50:20;101657.59;;;11.04;85.62
64336;BME280;50672;53.362;-6.240;2023-02-18T03:52:47;101663.88;;;11.04;85.48
64336;BME280;50672;53.362;-6.240;2023-02-18T03:55:13;101650.81;;;11.08;85.31
64336;BME280;50672;53.362;-6.240;2023-02-18T03:57:40;101663.41;;;11.09;85.10
64336;BME280;50672;53.362;-6.240;2023-02-18T04:00:07;101661.72;;;11.08;84.69
64336;BME280;50672;53.362;-6.240;2023-02-18T04:02:35;101648.09;;;11.08;84.05
64336;BME280;50672;53.362;-6.240;2023-02-18T04:05:01;101653.22;;;11.11;84.12
64336;BME280;50672;53.362;-6.240;2023-02-18T04:07:28;101649.31;;;11.14;83.84
64336;BME280;50672;53.362;-6.240;2023-02-18T04:09:55;101645.56;;;11.15;83.21
64336;BME280;50672;53.362;-6.240;2023-02-18T04:12:21;101651.03;;;11.15;82.89
64336;BME280;50672;53.362;-6.240;2023-02-18T04:14:49;101651.19;;;11.13;82.49
64336;BME280;50672;53.362;-6.240;2023-02-18T04:17:16;101661.47;;;11.01;82.50
64336;BME280;50672;53.362;-6.240;2023-02-18T04:19:43;101662.16;;;10.85;82.21
64336;BME280;50672;53.362;-6.240;2023-02-18T04:22:10;101655.69;;;10.68;82.20
64336;BME280;50672;53.362;-6.240;2023-02-18T04:24:37;101665.50;;;10.61;82.13
64336;BME280;50672;53.362;-6.240;2023-02-18T04:27:04;101657.78;;;10.56;82.68
64336;BME280;50672;53.362;-6.240;2023-02-18T04:29:30;101646.50;;;10.51;82.42
64336;BME280;50672;53.362;-6.240;2023-02-18T04:31:57;101655.81;;;10.49;82.68
64336;BME280;50672;53.362;-6.240;2023-02-18T04:34:24;101653.25;;;10.47;82.54
64336;BME280;50672;53.362;-6.240;2023-02-18T04:36:51;101651.00;;;10.42;82.61
64336;BME280;50672;53.362;-6.240;2023-02-18T04:39:18;101651.16;;;10.41;82.79
64336;BME280;50672;53.362;-6.240;2023-02-18T04:41:44;101662.47;;;10.36;82.72
64336;BME280;50672;53.362;-6.240;2023-02-18T04:44:11;101649.03;;;10.35;82.89
64336;BME280;50672;53.362;-6.240;2023-02-18T04:46:38;101653.63;;;10.34;83.10
64336;BME280;50672;53.362;-6.240;2023-02-18T04:49:05;101650.75;;;10.36;83.30
64336;BME280;50672;53.362;-6.240;2023-02-18T04:51:31;101654.47;;;10.35;82.95
64336;BME280;50672;53.362;-6.240;2023-02-18T04:53:58;101662.63;;;10.35;83.28
64336;BME280;50672;53.362;-6.240;2023-02-18T04:56:25;101669.03;;;10.34;83.37
64336;BME280;50672;53.362;-6.240;2023-02-18T04:58:52;101652.59;;;10.35;83.02
64336;BME280;50672;53.362;-6.240;2023-02-18T05:01:19;101652.72;;;10.34;82.96
64336;BME280;50672;53.362;-6.240;2023-02-18T05:03:45;101658.63;;;10.29;83.01
64336;BME280;50672;53.362;-6.240;2023-02-18T05:06:12;101671.38;;;10.29;83.21
64336;BME280;50672;53.362;-6.240;2023-02-18T05:08:39;101655.06;;;10.29;82.98
64336;BME280;50672;53.362;-6.240;2023-02-18T05:11:07;101671.91;;;10.32;83.14
64336;BME280;50672;53.362;-6.240;2023-02-18T05:13:34;101652.72;;;10.34;82.87
64336;BME280;50672;53.362;-6.240;2023-02-18T05:16:01;101658.03;;;10.35;82.90
64336;BME280;50672;53.362;-6.240;2023-02-18T05:18:28;101663.34;;;10.37;82.45
64336;BME280;50672;53.362;-6.240;2023-02-18T05:20:55;101657.19;;;10.35;82.43
64336;BME280;50672;53.362;-6.240;2023-02-18T05:23:21;101655.19;;;10.37;82.38
64336;BME280;50672;53.362;-6.240;2023-02-18T05:25:48;101650.59;;;10.37;82.35
64336;BME280;50672;53.362;-6.240;2023-02-18T05:28:15;101662.47;;;10.36;82.23
64336;BME280;50672;53.362;-6.240;2023-02-18T05:30:42;101660.19;;;10.32;82.49
64336;BME280;50672;53.362;-6.240;2023-02-18T05:33:09;101661.19;;;10.31;82.83
64336;BME280;50672;53.362;-6.240;2023-02-18T05:35:35;101664.06;;;10.29;82.85
64336;BME280;50672;53.362;-6.240;2023-02-18T05:38:02;101660.34;;;10.30;82.78
64336;BME280;50672;53.362;-6.240;2023-02-18T05:40:29;101660.50;;;10.29;82.88
64336;BME280;50672;53.362;-6.240;2023-02-18T05:42:56;101661.50;;;10.27;82.78
64336;BME280;50672;53.362;-6.240;2023-02-18T05:45:23;101647.16;;;10.25;82.65
64336;BME280;50672;53.362;-6.240;2023-02-18T05:47:50;101657.06;;;10.26;82.60
64336;BME280;50672;53.362;-6.240;2023-02-18T05:50:17;101656.22;;;10.26;82.61
64336;BME280;50672;53.362;-6.240;2023-02-18T05:52:43;101656.38;;;10.24;82.50
64336;BME280;50672;53.362;-6.240;2023-02-18T05:55:10;101651.91;;;10.23;82.40
64336;BME280;50672;53.362;-6.240;2023-02-18T05:57:37;101652.91;;;10.22;82.48
64336;BME280;50672;53.362;-6.240;2023-02-18T06:00:04;101652.91;;;10.22;82.55
64336;BME280;50672;53.362;-6.240;2023-02-18T06:02:31;101659.25;;;10.23;82.44
64336;BME280;50672;53.362;-6.240;2023-02-18T06:04:58;101663.81;;;10.22;82.21
64336;BME280;50672;53.362;-6.240;2023-02-18T06:07:25;101653.94;;;10.21;82.10
64336;BME280;50672;53.362;-6.240;2023-02-18T06:09:52;101661.38;;;10.19;81.87
64336;BME280;50672;53.362;-6.240;2023-02-18T06:12:19;101659.38;;;10.21;81.60
64336;BME280;50672;53.362;-6.240;2023-02-18T06:14:46;101673.84;;;10.22;81.65
64336;BME280;50672;53.362;-6.240;2023-02-18T06:17:13;101672.84;;;10.23;81.31
64336;BME280;50672;53.362;-6.240;2023-02-18T06:19:40;101669.66;;;10.27;81.23
64336;BME280;50672;53.362;-6.240;2023-02-18T06:22:07;101683.09;;;10.29;80.98
64336;BME280;50672;53.362;-6.240;2023-02-18T06:24:34;101684.09;;;10.38;81.01
64336;BME280;50672;53.362;-6.240;2023-02-18T06:27:01;101693.66;;;10.42;81.14
64336;BME280;50672;53.362;-6.240;2023-02-18T06:29:28;101670.31;;;10.39;80.89
64336;BME280;50672;53.362;-6.240;2023-02-18T06:31:58;101680.97;;;10.33;81.02
64336;BME280;50672;53.362;-6.240;2023-02-18T06:34:26;101683.09;;;10.29;80.84
64336;BME280;50672;53.362;-6.240;2023-02-18T06:36:53;101686.69;;;10.30;80.91
64336;BME280;50672;53.362;-6.240;2023-02-18T06:39:20;101674.63;;;10.32;80.74
64336;BME280;50672;53.362;-6.240;2023-02-18T06:41:46;101688.84;;;10.36;81.03
64336;BME280;50672;53.362;-6.240;2023-02-18T06:44:13;101686.13;;;10.36;81.12
64336;BME280;50672;53.362;-6.240;2023-02-18T06:46:43;101701.44;;;10.37;81.06
64336;BME280;50672;53.362;-6.240;2023-02-18T06:49:09;101699.44;;;10.39;80.90
64336;BME280;50672;53.362;-6.240;2023-02-18T06:51:36;101703.16;;;10.38;80.96
64336;BME280;50672;53.362;-6.240;2023-02-18T06:54:03;101705.72;;;10.39;80.99
64336;BME280;50672;53.362;-6.240;2023-02-18T06:56:31;101705.72;;;10.39;81.33
64336;BME280;50672;53.362;-6.240;2023-02-18T06:58:58;101709.31;;;10.40;80.88
64336;BME280;50672;53.362;-6.240;2023-02-18T07:01:25;101709.00;;;10.43;81.34
64336;BME280;50672;53.362;-6.240;2023-02-18T07:03:51;101713.13;;;10.47;80.96
64336;BME280;50672;53.362;-6.240;2023-02-18T07:06:18;101720.69;;;10.53;80.95
64336;BME280;50672;53.362;-6.240;2023-02-18T07:08:45;101709.50;;;10.56;81.07
64336;BME280;50672;53.362;-6.240;2023-02-18T07:11:12;101727.25;;;10.60;81.12
64336;BME280;50672;53.362;-6.240;2023-02-18T07:13:39;101739.69;;;10.63;80.80
64336;BME280;50672;53.362;-6.240;2023-02-18T07:16:06;101742.13;;;10.66;80.72
64336;BME280;50672;53.362;-6.240;2023-02-18T07:18:33;101741.97;;;10.68;80.63
64336;BME280;50672;53.362;-6.240;2023-02-18T07:21:00;101756.13;;;10.71;81.08
64336;BME280;50672;53.362;-6.240;2023-02-18T07:23:28;101765.03;;;10.73;80.92
64336;BME280;50672;53.362;-6.240;2023-02-18T07:26:06;101765.72;;;10.75;80.57
64336;BME280;50672;53.362;-6.240;2023-02-18T07:28:33;101770.00;;;10.78;80.64
64336;BME280;50672;53.362;-6.240;2023-02-18T07:31:00;101773.44;;;10.80;80.47
64336;BME280;50672;53.362;-6.240;2023-02-18T07:33:27;101777.16;;;10.79;80.93
64336;BME280;50672;53.362;-6.240;2023-02-18T07:35:57;101776.28;;;10.78;80.71
64336;BME280;50672;53.362;-6.240;2023-02-18T07:38:25;101780.91;;;10.78;80.95
64336;BME280;50672;53.362;-6.240;2023-02-18T07:40:52;101787.34;;;10.77;81.01
64336;BME280;50672;53.362;-6.240;2023-02-18T07:43:20;101786.81;;;10.73;81.09
64336;BME280;50672;53.362;-6.240;2023-02-18T07:45:46;101782.22;;;10.74;81.26
64336;BME280;50672;53.362;-6.240;2023-02-18T07:48:13;101790.38;;;10.74;81.03
64336;BME280;50672;53.362;-6.240;2023-02-18T07:50:42;101801.28;;;10.74;81.12
64336;BME280;50672;53.362;-6.240;2023-02-18T07:53:10;101786.81;;;10.73;81.41
64336;BME280;50672;53.362;-6.240;2023-02-18T07:55:37;101802.28;;;10.73;81.34
64336;BME280;50672;53.362;-6.240;2023-02-18T07:58:24;101791.53;;;10.71;81.50
64336;BME280;50672;53.362;-6.240;2023-02-18T08:00:52;101789.84;;;10.70;81.41
64336;BME280;50672;53.362;-6.240;2023-02-18T08:03:25;101800.16;;;10.67;81.73
64336;BME280;50672;53.362;-6.240;2023-02-18T08:05:53;101805.91;;;10.64;81.86
64336;BME280;50672;53.362;-6.240;2023-02-18T08:08:22;101810.63;;;10.62;81.83
64336;BME280;50672;53.362;-6.240;2023-02-18T08:10:50;101814.38;;;10.60;82.07
64336;BME280;50672;53.362;-6.240;2023-02-18T08:13:18;101806.06;;;10.62;81.93
64336;BME280;50672;53.362;-6.240;2023-02-18T08:15:45;101812.22;;;10.64;82.07
64336;BME280;50672;53.362;-6.240;2023-02-18T08:18:17;101820.22;;;10.66;82.41
64336;BME280;50672;53.362;-6.240;2023-02-18T08:20:45;101821.78;;;10.68;82.53
64336;BME280;50672;53.362;-6.240;2023-02-18T08:23:13;101827.97;;;10.70;82.61
64336;BME280;50672;53.362;-6.240;2023-02-18T08:25:50;101830.81;;;10.69;82.39
64336;BME280;50672;53.362;-6.240;2023-02-18T08:28:18;101833.41;;;10.70;82.50
64336;BME280;50672;53.362;-6.240;2023-02-18T08:30:46;101827.97;;;10.70;82.71
64336;BME280;50672;53.362;-6.240;2023-02-18T08:33:14;101848.88;;;10.70;82.68
64336;BME280;50672;53.362;-6.240;2023-02-18T08:35:41;101848.88;;;10.70;82.70
64336;BME280;50672;53.362;-6.240;2023-02-18T08:38:08;101845.44;;;10.68;82.76
64336;BME280;50672;53.362;-6.240;2023-02-18T08:40:35;101853.63;;;10.68;83.26
64336;BME280;50672;53.362;-6.240;2023-02-18T08:43:02;101857.34;;;10.67;83.37
64336;BME280;50672;53.362;-6.240;2023-02-18T08:45:29;101861.22;;;10.64;83.76
64336;BME280;50672;53.362;-6.240;2023-02-18T08:47:55;101868.69;;;10.62;83.52
64336;BME280;50672;53.362;-6.240;2023-02-18T08:50:42;101867.13;;;10.59;83.62
64336;BME280;50672;53.362;-6.240;2023-02-18T08:53:09;101872.13;;;10.54;83.90
64336;BME280;50672;53.362;-6.240;2023-02-18T08:55:39;101869.41;;;10.54;84.11
64336;BME280;50672;53.362;-6.240;2023-02-18T08:58:06;101871.84;;;10.57;84.22
64336;BME280;50672;53.362;-6.240;2023-02-18T09:00:34;101872.56;;;10.59;84.35
64336;BME280;50672;53.362;-6.240;2023-02-18T09:03:01;101878.69;;;10.62;84.71
64336;BME280;50672;53.362;-6.240;2023-02-18T09:05:28;101883.00;;;10.64;84.61
64336;BME280;50672;53.362;-6.240;2023-02-18T09:07:55;101897.50;;;10.65;84.44
64336;BME280;50672;53.362;-6.240;2023-02-18T09:10:22;101902.22;;;10.63;84.86
64336;BME280;50672;53.362;-6.240;2023-02-18T09:12:49;101910.38;;;10.63;84.90
64336;BME280;50672;53.362;-6.240;2023-02-18T09:15:16;101919.16;;;10.56;84.82
64336;BME280;50672;53.362;-6.240;2023-02-18T09:17:43;101912.28;;;10.52;85.09
64336;BME280;50672;53.362;-6.240;2023-02-18T09:20:10;101904.13;;;10.52;85.18
64336;BME280;50672;53.362;-6.240;2023-02-18T09:22:37;101903.09;;;10.53;85.28
64336;BME280;50672;53.362;-6.240;2023-02-18T09:25:04;101906.53;;;10.55;85.46
64336;BME280;50672;53.362;-6.240;2023-02-18T09:27:31;101908.25;;;10.56;85.49
64336;BME280;50672;53.362;-6.240;2023-02-18T09:29:57;101909.38;;;10.64;85.51
64336;BME280;50672;53.362;-6.240;2023-02-18T09:32:24;101905.22;;;10.69;85.72
64336;BME280;50672;53.362;-6.240;2023-02-18T09:35:00;101906.78;;;10.72;85.63
64336;BME280;50672;53.362;-6.240;2023-02-18T09:37:28;101910.63;;;10.79;85.50
64336;BME280;50672;53.362;-6.240;2023-02-18T09:39:55;101913.88;;;10.83;85.53
64336;BME280;50672;53.362;-6.240;2023-02-18T09:42:31;101909.00;;;10.86;85.41
64336;BME280;50672;53.362;-6.240;2023-02-18T09:45:03;101910.28;;;10.92;85.29
64336;BME280;50672;53.362;-6.240;2023-02-18T09:47:38;101908.13;;;10.96;85.19
64336;BME280;50672;53.362;-6.240;2023-02-18T09:50:13;101912.97;;;11.02;85.13
64336;BME280;50672;53.362;-6.240;2023-02-18T09:52:44;101910.34;;;11.10;84.87
64336;BME280;50672;53.362;-6.240;2023-02-18T09:55:26;101908.03;;;11.15;84.76
64336;BME280;50672;53.362;-6.240;2023-02-18T09:57:55;101914.03;;;11.19;84.78
64336;BME280;50672;53.362;-6.240;2023-02-18T10:00:31;101923.78;;;11.21;84.73
64336;BME280;50672;53.362;-6.240;2023-02-18T10:03:03;101915.00;;;11.27;84.63
64336;BME280;50672;53.362;-6.240;2023-02-18T10:05:32;101918.28;;;11.31;84.00
64336;BME280;50672;53.362;-6.240;2023-02-18T10:08:05;101917.97;;;11.34;83.87
64336;BME280;50672;53.362;-6.240;2023-02-18T10:10:36;101918.38;;;11.39;83.45
64336;BME280;50672;53.362;-6.240;2023-02-18T10:13:10;101925.66;;;11.49;83.45
64336;BME280;50672;53.362;-6.240;2023-02-18T10:15:39;101924.78;;;11.48;82.64
64336;BME280;50672;53.362;-6.240;2023-02-18T10:18:29;101927.81;;;11.45;82.48
64336;BME280;50672;53.362;-6.240;2023-02-18T10:21:05;101933.13;;;11.46;82.29
64336;BME280;50672;53.362;-6.240;2023-02-18T10:23:36;101929.22;;;11.49;81.88
64336;BME280;50672;53.362;-6.240;2023-02-18T10:26:06;101926.19;;;11.52;81.38
64336;BME280;50672;53.362;-6.240;2023-02-18T10:28:36;101928.91;;;11.52;81.37
64336;BME280;50672;53.362;-6.240;2023-02-18T10:31:17;101925.34;;;11.52;80.92
64336;BME280;50672;53.362;-6.240;2023-02-18T10:33:52;101926.19;;;11.52;80.75
64336;BME280;50672;53.362;-6.240;2023-02-18T10:36:25;101916.31;;;11.51;80.33
64336;BME280;50672;53.362;-6.240;2023-02-18T10:45:27;101927.06;;;11.53;79.73
64336;BME280;50672;53.362;-6.240;2023-02-18T10:50:39;101912.97;;;11.57;79.70
64336;BME280;50672;53.362;-6.240;2023-02-18T10:53:11;101917.78;;;11.63;79.36
64336;BME280;50672;53.362;-6.240;2023-02-18T10:55:45;101912.44;;;11.72;79.10
64336;BME280;50672;53.362;-6.240;2023-02-18T10:58:32;101914.56;;;11.78;79.33
64336;BME280;50672;53.362;-6.240;2023-02-18T11:01:03;101907.94;;;11.80;78.88
64336;BME280;50672;53.362;-6.240;2023-02-18T11:03:51;101909.47;;;11.83;78.74
64336;BME280;50672;53.362;-6.240;2023-02-18T11:06:30;101902.25;;;11.92;78.71
64336;BME280;50672;53.362;-6.240;2023-02-18T11:08:59;101897.78;;;11.91;78.24
64336;BME280;50672;53.362;-6.240;2023-02-18T11:11:30;101901.00;;;11.86;78.44
64336;BME280;50672;53.362;-6.240;2023-02-18T11:14:00;101908.47;;;11.84;78.24
64336;BME280;50672;53.362;-6.240;2023-02-18T11:19:03;101906.69;;;11.75;77.97
64336;BME280;50672;53.362;-6.240;2023-02-18T11:21:35;101888.59;;;11.74;78.22
64336;BME280;50672;53.362;-6.240;2023-02-18T11:24:14;101895.06;;;11.73;78.32
64336;BME280;50672;53.362;-6.240;2023-02-18T11:26:47;101889.91;;;11.70;78.38
64336;BME280;50672;53.362;-6.240;2023-02-18T11:29:23;101892.97;;;11.67;78.25
64336;BME280;50672;53.362;-6.240;2023-02-18T11:31:54;101898.41;;;11.67;78.37
64336;BME280;50672;53.362;-6.240;2023-02-18T11:34:26;101898.53;;;11.65;78.41
64336;BME280;50672;53.362;-6.240;2023-02-18T11:36:54;101901.75;;;11.78;78.76
64336;BME280;50672;53.362;-6.240;2023-02-18T11:39:26;101884.91;;;11.83;78.31
64336;BME280;50672;53.362;-6.240;2023-02-18T11:41:55;101886.63;;;11.84;78.20
64336;BME280;50672;53.362;-6.240;2023-02-18T11:44:37;101876.69;;;11.75;78.21
64336;BME280;50672;53.362;-6.240;2023-02-18T11:47:16;101881.72;;;11.70;77.63
64336;BME280;50672;53.362;-6.240;2023-02-18T11:50:00;101903.88;;;11.67;77.28
64336;BME280;50672;53.362;-6.240;2023-02-18T11:55:03;101903.78;;;11.58;76.97
64336;BME280;50672;53.362;-6.240;2023-02-18T11:57:31;101911.81;;;11.60;76.87
64336;BME280;50672;53.362;-6.240;2023-02-18T11:59:59;101901.44;;;11.63;76.71
64336;BME280;50672;53.362;-6.240;2023-02-18T12:02:35;101910.16;;;11.67;76.90
64336;BME280;50672;53.362;-6.240;2023-02-18T12:05:24;101908.28;;;11.68;77.01
64336;BME280;50672;53.362;-6.240;2023-02-18T12:08:06;101912.91;;;11.67;76.96
64336;BME280;50672;53.362;-6.240;2023-02-18T12:10:49;101911.91;;;11.68;76.93
64336;BME280;50672;53.362;-6.240;2023-02-18T12:13:27;101923.25;;;11.63;76.79
64336;BME280;50672;53.362;-6.240;2023-02-18T12:19:03;101918.72;;;12.00;77.16
64336;BME280;50672;53.362;-6.240;2023-02-18T12:27:31;101916.00;;;12.71;76.54
64336;BME280;50672;53.362;-6.240;2023-02-18T12:30:26;101904.13;;;12.80;76.27
64336;BME280;50672;53.362;-6.240;2023-02-18T12:35:43;101918.16;;;12.85;75.20
64336;BME280;50672;53.362;-6.240;2023-02-18T12:44:23;101907.88;;;12.79;73.92
64336;BME280;50672;53.362;-6.240;2023-02-18T13:01:09;101886.44;;;12.92;72.65
64336;BME280;50672;53.362;-6.240;2023-02-18T13:04:00;101869.09;;;13.18;72.67
64336;BME280;50672;53.362;-6.240;2023-02-18T13:12:07;101872.34;;;12.79;71.51
64336;BME280;50672;53.362;-6.240;2023-02-18T13:15:00;101861.16;;;12.64;71.18
64336;BME280;50672;53.362;-6.240;2023-02-18T13:17:33;101875.88;;;12.63;71.09
64336;BME280;50672;53.362;-6.240;2023-02-18T13:22:35;101866.88;;;12.79;71.12
64336;BME280;50672;53.362;-6.240;2023-02-18T13:25:02;101882.31;;;12.88;71.21
64336;BME280;50672;53.362;-6.240;2023-02-18T13:27:39;101859.75;;;12.86;71.09
64336;BME280;50672;53.362;-6.240;2023-02-18T13:30:42;101866.34;;;12.75;70.69
64336;BME280;50672;53.362;-6.240;2023-02-18T13:33:21;101865.28;;;12.68;70.86
64336;BME280;50672;53.362;-6.240;2023-02-18T13:35:54;101867.28;;;12.58;71.00
64336;BME280;50672;53.362;-6.240;2023-02-18T13:38:51;101875.16;;;12.61;70.70
64336;BME280;50672;53.362;-6.240;2023-02-18T13:41:20;101878.28;;;13.01;71.39
64336;BME280;50672;53.362;-6.240;2023-02-18T13:43:48;101858.13;;;13.44;71.21
64336;BME280;50672;53.362;-6.240;2023-02-18T13:46:23;101857.47;;;13.75;71.49
64336;BME280;50672;53.362;-6.240;2023-02-18T13:49:10;101854.75;;;13.83;71.09
64336;BME280;50672;53.362;-6.240;2023-02-18T13:51:45;101846.72;;;14.15;70.97
64336;BME280;50672;53.362;-6.240;2023-02-18T13:54:41;101857.13;;;15.40;70.52
64336;BME280;50672;53.362;-6.240;2023-02-18T13:57:14;101852.19;;;17.33;69.60
64336;BME280;50672;53.362;-6.240;2023-02-18T13:59:45;101830.69;;;18.01;68.29
64336;BME280;50672;53.362;-6.240;2023-02-18T14:26:04;101798.38;;;13.15;67.16
64336;BME280;50672;53.362;-6.240;2023-02-18T14:33:34;101788.63;;;13.12;68.04
64336;BME280;50672;53.362;-6.240;2023-02-18T14:36:28;101775.81;;;13.05;68.12
64336;BME280;50672;53.362;-6.240;2023-02-18T14:42:02;101763.03;;;12.71;68.69
64336;BME280;50672;53.362;-6.240;2023-02-18T14:45:04;101771.22;;;12.71;68.93
64336;BME280;50672;53.362;-6.240;2023-02-18T14:50:43;101786.81;;;13.38;69.33
64336;BME280;50672;53.362;-6.240;2023-02-18T14:53:14;101781.09;;;13.23;69.13
64336;BME280;50672;53.362;-6.240;2023-02-18T14:55:57;101784.88;;;13.13;69.52
64336;BME280;50672;53.362;-6.240;2023-02-18T14:58:40;101798.06;;;13.34;69.50
64336;BME280;50672;53.362;-6.240;2023-02-18T15:01:31;101800.84;;;13.43;69.62
64336;BME280;50672;53.362;-6.240;2023-02-18T15:04:00;101797.09;;;13.36;69.46
64336;BME280;50672;53.362;-6.240;2023-02-18T15:06:31;101802.88;;;13.41;68.79
64336;BME280;50672;53.362;-6.240;2023-02-18T15:08:59;101818.91;;;13.27;68.88